createdAt,value
2023-03-16T00:01:07.078Z,90.30
2023-03-16T00:03:53.141Z,87.60
2023-03-16T00:06:38.317Z,89.10
2023-03-16T00:09:30.961Z,88.80
2023-03-16T00:12:17.667Z,86.30
2023-03-16T00:15:04.596Z,91.60
2023-03-16T00:29:01.801Z,88.30
2023-03-16T00:42:55.123Z,87.00
2023-03-16T00:51:20.000Z,86.30
2023-03-16T00:54:05.828Z,82.30
2023-03-16T00:56:51.349Z,90.60
2023-03-16T01:02:24.655Z,89.90
2023-03-16T01:05:10.123Z,89.00
2023-03-16T01:07:55.624Z,87.60
2023-03-16T01:10:41.684Z,88.50
2023-03-16T01:13:27.459Z,87.20
2023-03-16T01:16:13.128Z,87.00
2023-03-16T01:18:58.910Z,89.40
2023-03-16T01:21:44.318Z,85.10
2023-03-16T01:24:30.120Z,90.20
2023-03-16T01:27:15.619Z,90.70
2023-03-16T01:30:02.491Z,89.00
2023-03-16T01:32:48.796Z,89.00
2023-03-16T01:35:35.059Z,91.90
2023-03-16T01:38:21.727Z,89.20
2023-03-16T01:41:07.306Z,87.90
2023-03-16T01:43:53.782Z,85.00
2023-03-16T01:46:39.448Z,91.50
2023-03-16T01:49:26.790Z,83.20
2023-03-16T01:52:14.774Z,91.10
2023-03-16T01:55:02.764Z,87.80
2023-03-16T01:57:48.086Z,89.10
2023-03-16T02:00:33.926Z,88.00
2023-03-16T02:03:30.068Z,88.80
2023-03-16T02:06:24.281Z,90.90
2023-03-16T02:09:13.594Z,86.80
2023-03-16T02:11:59.644Z,86.10
2023-03-16T02:14:46.874Z,91.00
2023-03-16T02:17:34.034Z,85.60
2023-03-16T02:20:24.050Z,90.00
2023-03-16T02:23:18.604Z,86.30
2023-03-16T02:26:12.589Z,85.40
2023-03-16T02:29:10.157Z,92.00
2023-03-16T02:31:59.028Z,88.20
2023-03-16T02:34:44.692Z,83.50
2023-03-16T02:37:35.972Z,86.80
2023-03-16T02:40:27.210Z,79.20
2023-03-16T02:43:20.636Z,83.10
2023-03-16T02:46:23.609Z,83.90
2023-03-16T02:49:26.213Z,82.10
2023-03-16T02:52:12.116Z,88.20
2023-03-16T02:54:57.896Z,84.90
2023-03-16T02:57:43.505Z,84.20
2023-03-16T03:00:33.129Z,83.60
2023-03-16T03:03:18.997Z,81.50
2023-03-16T03:06:05.090Z,80.90
2023-03-16T03:08:53.931Z,86.50
2023-03-16T03:11:40.284Z,83.70
2023-03-16T03:14:25.590Z,82.20
2023-03-16T03:17:13.318Z,86.50
2023-03-16T03:19:59.917Z,79.50
2023-03-16T03:22:46.689Z,82.90
2023-03-16T03:25:34.978Z,79.50
2023-03-16T03:28:22.222Z,76.80
2023-03-16T03:31:16.517Z,78.90
2023-03-16T03:34:06.627Z,85.20
2023-03-16T03:36:54.223Z,80.30
2023-03-16T03:39:40.420Z,83.50
2023-03-16T03:42:26.379Z,85.10
2023-03-16T03:45:15.519Z,81.40
2023-03-16T03:48:01.126Z,80.10
2023-03-16T03:50:46.819Z,85.00
2023-03-16T03:53:38.081Z,79.60
2023-03-16T03:56:55.810Z,85.40
2023-03-16T03:59:43.838Z,82.80
2023-03-16T04:02:52.468Z,81.40
2023-03-16T04:05:45.709Z,85.90
2023-03-16T04:08:31.428Z,82.10
2023-03-16T04:11:18.281Z,85.30
2023-03-16T04:14:04.381Z,80.30
2023-03-16T04:16:49.946Z,79.80
2023-03-16T04:19:35.916Z,80.80
2023-03-16T04:22:23.684Z,87.60
2023-03-16T04:25:11.558Z,82.10
2023-03-16T04:27:58.286Z,83.50
2023-03-16T04:30:47.743Z,77.80
2023-03-16T04:33:38.496Z,88.70
2023-03-16T04:36:24.317Z,85.90
2023-03-16T04:39:10.665Z,88.40
2023-03-16T04:41:56.113Z,82.30
2023-03-16T04:44:45.127Z,82.50
2023-03-16T04:47:33.984Z,89.30
2023-03-16T04:50:19.482Z,84.60
2023-03-16T04:53:09.670Z,85.10
2023-03-16T04:55:55.068Z,81.40
2023-03-16T04:58:40.896Z,83.40
2023-03-16T05:01:26.586Z,82.80
2023-03-16T05:04:19.583Z,84.50
2023-03-16T05:07:06.733Z,84.50
2023-03-16T05:09:56.386Z,80.20
2023-03-16T05:12:42.353Z,82.20
2023-03-16T05:15:28.273Z,82.80
2023-03-16T05:18:33.593Z,85.30
2023-03-16T05:21:19.217Z,81.90
2023-03-16T05:24:12.338Z,87.00
2023-03-16T05:26:58.485Z,82.80
2023-03-16T05:29:48.154Z,83.40
2023-03-16T05:32:34.144Z,86.20
2023-03-16T05:35:19.798Z,85.30
2023-03-16T05:38:05.703Z,85.90
2023-03-16T05:40:54.577Z,87.60
2023-03-16T05:43:59.204Z,85.30
2023-03-16T05:46:51.503Z,84.90
2023-03-16T05:49:37.697Z,90.30
2023-03-16T05:52:28.210Z,88.90
2023-03-16T05:55:18.856Z,86.00
2023-03-16T05:58:09.768Z,86.00
2023-03-16T06:00:59.515Z,88.60
2023-03-16T06:03:48.953Z,90.50
2023-03-16T06:06:38.772Z,90.70
2023-03-16T06:09:30.715Z,91.80
2023-03-16T06:12:16.655Z,98.10
2023-03-16T06:15:02.793Z,99.90
2023-03-16T06:17:49.089Z,99.90
2023-03-16T06:20:35.520Z,99.90
2023-03-16T06:23:21.832Z,99.90
2023-03-16T06:26:08.145Z,99.90
2023-03-16T06:28:55.838Z,99.90
2023-03-16T06:31:42.091Z,99.90
2023-03-16T06:34:28.849Z,99.60
2023-03-16T06:37:15.523Z,99.30
2023-03-16T06:40:01.468Z,99.90
2023-03-16T06:42:48.238Z,98.60
2023-03-16T06:45:36.647Z,98.20
2023-03-16T06:48:22.278Z,97.90
2023-03-16T06:51:08.128Z,97.70
2023-03-16T06:53:54.960Z,97.70
2023-03-16T06:56:40.823Z,97.50
2023-03-16T06:59:26.174Z,97.70
2023-03-16T07:02:15.340Z,98.10
2023-03-16T07:05:01.480Z,98.10
2023-03-16T07:07:47.603Z,98.10
2023-03-16T07:10:32.894Z,98.10
2023-03-16T07:13:18.613Z,98.10
2023-03-16T07:16:05.026Z,98.10
2023-03-16T07:18:52.302Z,98.10
2023-03-16T07:21:41.976Z,98.10
2023-03-16T07:24:32.784Z,98.00
2023-03-16T07:27:18.629Z,97.80
2023-03-16T07:30:05.559Z,97.90
2023-03-16T07:32:53.682Z,97.90
2023-03-16T07:35:41.526Z,98.00
2023-03-16T07:38:27.554Z,97.90
2023-03-16T07:41:14.044Z,98.10
2023-03-16T07:44:00.311Z,98.10
2023-03-16T07:46:45.892Z,98.20
2023-03-16T07:49:31.652Z,98.20
2023-03-16T07:52:19.473Z,98.20
2023-03-16T07:55:07.379Z,98.20
2023-03-16T07:57:53.772Z,98.10
2023-03-16T08:00:46.493Z,98.00
2023-03-16T08:03:32.346Z,97.90
2023-03-16T08:06:17.861Z,97.90
2023-03-16T08:09:03.873Z,97.90
2023-03-16T08:11:53.770Z,97.80
2023-03-16T08:14:39.553Z,97.60
2023-03-16T08:17:31.618Z,97.60
2023-03-16T08:20:19.481Z,97.40
2023-03-16T08:23:06.426Z,97.30
2023-03-16T08:25:58.608Z,97.10
2023-03-16T08:28:46.477Z,97.00
2023-03-16T08:31:35.175Z,96.70
2023-03-16T08:34:31.868Z,96.70
2023-03-16T08:37:17.665Z,96.70
2023-03-16T08:40:10.374Z,96.60
2023-03-16T08:42:57.023Z,96.40
2023-03-16T08:45:45.114Z,96.00
2023-03-16T08:48:33.385Z,95.90
2023-03-16T08:51:19.479Z,95.90
2023-03-16T08:54:04.998Z,95.70
2023-03-16T08:56:51.816Z,95.90
2023-03-16T08:59:37.301Z,94.70
2023-03-16T09:02:23.038Z,96.00
2023-03-16T09:05:10.116Z,96.00
2023-03-16T09:07:55.983Z,96.00
2023-03-16T09:10:41.702Z,96.00
2023-03-16T09:13:27.646Z,96.10
2023-03-16T09:16:14.020Z,95.90
2023-03-16T09:18:59.464Z,95.70
2023-03-16T09:21:47.365Z,95.70
2023-03-16T09:24:33.157Z,95.50
2023-03-16T09:27:18.771Z,95.50
2023-03-16T09:30:05.534Z,95.30
2023-03-16T09:32:52.316Z,95.30
2023-03-16T09:35:38.184Z,95.30
2023-03-16T09:38:26.402Z,95.20
2023-03-16T09:41:44.637Z,95.30
2023-03-16T09:44:30.733Z,95.30
2023-03-16T09:47:18.387Z,95.40
2023-03-16T09:50:06.502Z,95.40
2023-03-16T09:52:52.073Z,95.20
2023-03-16T09:55:56.398Z,95.10
2023-03-16T09:58:42.292Z,95.00
2023-03-16T10:02:07.799Z,94.70
2023-03-16T10:05:07.813Z,94.80
2023-03-16T10:08:05.359Z,95.20
2023-03-16T10:11:15.045Z,95.30
2023-03-16T10:14:03.264Z,95.40
2023-03-16T10:16:50.581Z,95.40
2023-03-16T10:19:42.323Z,95.00
2023-03-16T10:22:31.265Z,95.30
2023-03-16T10:25:19.598Z,95.40
2023-03-16T10:28:05.425Z,95.20
2023-03-16T10:30:51.881Z,95.30
2023-03-16T10:33:37.666Z,95.30
2023-03-16T10:36:26.473Z,95.50
2023-03-16T10:39:13.527Z,95.30
2023-03-16T10:41:59.187Z,95.10
2023-03-16T10:44:45.206Z,95.30
2023-03-16T10:47:31.925Z,95.50
2023-03-16T10:50:23.697Z,95.30
2023-03-16T10:53:18.580Z,95.40
2023-03-16T10:56:20.090Z,95.00
2023-03-16T10:59:16.015Z,95.30
2023-03-16T11:02:02.628Z,95.10
2023-03-16T11:04:48.250Z,94.80
2023-03-16T11:07:36.238Z,94.80
2023-03-16T11:10:28.117Z,94.80
2023-03-16T11:13:18.143Z,94.70
2023-03-16T11:16:18.932Z,94.90
2023-03-16T11:19:23.323Z,94.90
2023-03-16T11:22:13.218Z,94.90
2023-03-16T11:25:08.093Z,95.10
2023-03-16T11:27:56.577Z,94.90
2023-03-16T11:30:51.873Z,95.10
2023-03-16T11:33:38.059Z,95.00
2023-03-16T11:36:39.656Z,95.00
2023-03-16T11:39:28.394Z,95.00
2023-03-16T11:42:23.250Z,94.90
2023-03-16T11:45:15.301Z,95.10
2023-03-16T11:48:01.164Z,95.20
2023-03-16T11:50:49.887Z,94.10
2023-03-16T11:53:54.636Z,95.60
2023-03-16T11:56:45.130Z,95.40
2023-03-16T11:59:49.018Z,95.30
2023-03-16T12:02:56.511Z,95.50
2023-03-16T12:05:45.155Z,95.40
2023-03-16T12:08:43.682Z,95.40
2023-03-16T12:11:52.615Z,95.40
2023-03-16T12:14:46.917Z,95.60
2023-03-16T12:17:33.349Z,95.90
2023-03-16T12:20:23.271Z,96.00
2023-03-16T12:23:22.800Z,96.00
2023-03-16T12:26:09.091Z,95.70
2023-03-16T12:28:55.399Z,95.70
2023-03-16T12:31:56.006Z,96.00
2023-03-16T12:34:47.525Z,95.90
2023-03-16T12:37:41.469Z,95.80
2023-03-16T12:40:46.445Z,95.70
2023-03-16T12:43:39.639Z,96.00
2023-03-16T12:46:29.114Z,96.40
2023-03-16T12:49:14.995Z,96.20
2023-03-16T12:52:01.659Z,95.90
2023-03-16T12:55:07.152Z,95.70
2023-03-16T12:57:59.265Z,95.40
2023-03-16T13:00:56.628Z,95.00
2023-03-16T13:03:43.285Z,94.70
2023-03-16T13:06:32.303Z,94.60
2023-03-16T13:09:25.369Z,94.70
2023-03-16T13:12:22.278Z,94.80
2023-03-16T13:15:34.762Z,94.70
2023-03-16T13:18:22.585Z,94.70
2023-03-16T13:21:16.458Z,94.90
2023-03-16T13:24:21.646Z,95.10
2023-03-16T13:27:15.823Z,94.90
2023-03-16T13:30:03.537Z,94.70
2023-03-16T13:32:53.144Z,94.60
2023-03-16T13:35:39.657Z,94.50
2023-03-16T13:38:27.579Z,94.40
2023-03-16T13:41:14.490Z,94.60
2023-03-16T13:44:00.687Z,94.80
2023-03-16T13:46:48.121Z,95.00
2023-03-16T13:49:34.287Z,94.70
2023-03-16T13:52:28.230Z,94.60
2023-03-16T13:55:18.414Z,94.60
2023-03-16T13:58:04.369Z,94.50
2023-03-16T14:00:49.703Z,94.30
2023-03-16T14:03:37.105Z,94.20
2023-03-16T14:06:25.266Z,94.10
2023-03-16T14:09:17.470Z,94.20
2023-03-16T14:12:03.739Z,93.40
2023-03-16T14:14:50.707Z,93.90
2023-03-16T14:17:36.370Z,93.90
2023-03-16T14:20:24.091Z,94.00
2023-03-16T14:23:28.518Z,94.10
2023-03-16T14:26:16.062Z,94.20
2023-03-16T14:29:03.146Z,94.20
2023-03-16T14:31:48.705Z,94.40
2023-03-16T14:34:41.354Z,94.40
2023-03-16T14:37:34.421Z,94.30
2023-03-16T14:40:30.867Z,94.50
2023-03-16T14:43:16.292Z,94.60
2023-03-16T14:46:04.967Z,94.40
2023-03-16T14:48:50.618Z,94.40
2023-03-16T14:51:37.731Z,94.30
2023-03-16T14:54:23.169Z,94.70
2023-03-16T14:57:15.681Z,94.70
2023-03-16T15:00:01.331Z,94.70
2023-03-16T15:02:59.283Z,94.60
2023-03-16T15:05:50.332Z,94.70
2023-03-16T15:08:43.474Z,94.50
2023-03-16T15:11:29.560Z,94.50
2023-03-16T15:14:35.165Z,94.40
2023-03-16T15:17:20.807Z,94.20
2023-03-16T15:20:07.193Z,94.30
2023-03-16T15:22:53.054Z,94.20
2023-03-16T15:25:40.666Z,94.00
2023-03-16T15:28:27.114Z,93.90
2023-03-16T15:31:14.454Z,93.80
2023-03-16T15:33:59.742Z,93.60
2023-03-16T15:36:45.451Z,93.70
2023-03-16T15:39:30.929Z,93.90
2023-03-16T15:42:18.037Z,94.20
2023-03-16T15:45:07.425Z,94.10
2023-03-16T15:47:53.673Z,94.10
2023-03-16T15:50:40.926Z,94.20
2023-03-16T15:53:31.267Z,94.30
2023-03-16T15:56:21.196Z,94.00
2023-03-16T15:59:06.818Z,93.90
2023-03-16T16:01:52.946Z,93.50
2023-03-16T16:04:38.552Z,93.50
2023-03-16T16:07:24.465Z,93.60
2023-03-16T16:10:12.858Z,93.70
2023-03-16T16:12:59.026Z,93.90
2023-03-16T16:15:45.364Z,93.60
2023-03-16T16:18:36.551Z,93.60
2023-03-16T16:21:24.528Z,93.80
2023-03-16T16:24:10.713Z,93.80
2023-03-16T16:26:56.701Z,93.80
2023-03-16T16:29:42.363Z,93.90
2023-03-16T16:32:27.770Z,94.00
2023-03-16T16:35:17.673Z,94.00
2023-03-16T16:38:03.119Z,94.10
2023-03-16T16:40:48.828Z,94.20
2023-03-16T16:43:38.842Z,94.80
2023-03-16T16:46:25.853Z,95.30
2023-03-16T16:49:16.397Z,96.30
2023-03-16T16:52:02.320Z,97.50
2023-03-16T16:54:47.954Z,99.40
2023-03-16T16:57:33.461Z,99.90
2023-03-16T17:00:23.793Z,99.90
2023-03-16T17:03:20.492Z,99.90
2023-03-16T17:06:05.755Z,99.90
2023-03-16T17:08:52.382Z,99.90
2023-03-16T17:11:37.844Z,99.90
2023-03-16T17:14:24.074Z,99.90
2023-03-16T17:17:13.366Z,99.90
2023-03-16T17:19:58.760Z,99.90
2023-03-16T17:22:45.792Z,99.90
2023-03-16T17:25:32.535Z,99.90
2023-03-16T17:28:18.537Z,99.90
2023-03-16T17:31:04.445Z,99.90
2023-03-16T17:33:52.332Z,99.90
2023-03-16T17:36:37.798Z,99.90
2023-03-16T17:39:23.575Z,99.90
2023-03-16T17:42:13.961Z,99.90
2023-03-16T17:45:00.019Z,99.90
2023-03-16T17:47:46.210Z,99.90
2023-03-16T17:50:34.015Z,99.90
2023-03-16T17:53:19.936Z,99.90
2023-03-16T17:56:12.106Z,99.90
2023-03-16T17:58:57.630Z,99.90
2023-03-16T18:01:44.001Z,99.90
2023-03-16T18:04:29.692Z,99.90
2023-03-16T18:07:15.346Z,99.90
2023-03-16T18:10:01.156Z,99.90
2023-03-16T18:12:47.087Z,99.90
2023-03-16T18:15:33.933Z,99.90
2023-03-16T18:18:21.412Z,99.90
2023-03-16T18:21:06.885Z,99.90
2023-03-16T18:23:53.754Z,99.90
2023-03-16T18:26:39.825Z,99.90
2023-03-16T18:29:25.177Z,99.90
2023-03-16T18:32:31.204Z,99.90
2023-03-16T18:35:17.970Z,99.90
2023-03-16T18:38:03.630Z,99.90
2023-03-16T18:40:49.424Z,99.90
2023-03-16T18:43:34.823Z,99.90
2023-03-16T18:46:26.609Z,99.90
2023-03-16T18:49:18.885Z,99.90
2023-03-16T18:52:12.632Z,99.90
2023-03-16T18:54:58.448Z,99.90
2023-03-16T18:57:46.594Z,99.90
2023-03-16T19:00:32.133Z,99.90
2023-03-16T19:03:28.135Z,99.90
2023-03-16T19:06:19.272Z,99.90
2023-03-16T19:09:08.857Z,99.90
2023-03-16T19:11:54.414Z,99.90
2023-03-16T19:14:40.057Z,99.90
2023-03-16T19:17:25.986Z,99.90
2023-03-16T19:20:13.835Z,99.90
2023-03-16T19:23:23.621Z,99.90
2023-03-16T19:26:09.461Z,99.90
2023-03-16T19:28:54.979Z,99.90
2023-03-16T19:31:40.736Z,99.90
2023-03-16T19:34:26.578Z,99.90
2023-03-16T19:37:14.759Z,99.90
2023-03-16T19:40:00.480Z,99.90
2023-03-16T19:42:46.619Z,99.90
2023-03-16T19:45:35.853Z,99.90
2023-03-16T19:48:28.003Z,99.90
2023-03-16T19:51:14.710Z,99.90
2023-03-16T19:54:01.347Z,99.90
2023-03-16T19:56:47.100Z,99.90
2023-03-16T19:59:33.730Z,99.90
2023-03-16T20:02:25.295Z,99.90
2023-03-16T20:05:15.354Z,99.90
2023-03-16T20:08:01.392Z,99.90
2023-03-16T20:10:47.993Z,99.90
2023-03-16T20:13:34.339Z,99.90
2023-03-16T20:16:24.023Z,99.90
2023-03-16T20:19:14.828Z,99.90
2023-03-16T20:22:01.286Z,99.90
2023-03-16T20:24:49.415Z,99.90
2023-03-16T20:27:35.532Z,99.90
2023-03-16T20:30:21.333Z,99.90
2023-03-16T20:33:11.578Z,99.90
2023-03-16T20:35:57.037Z,99.90
2023-03-16T20:38:42.839Z,99.90
2023-03-16T20:41:29.591Z,99.90
2023-03-16T20:44:18.002Z,99.90
2023-03-16T20:47:03.552Z,99.90
2023-03-16T20:49:50.619Z,99.90
2023-03-16T20:52:36.854Z,99.90
2023-03-16T20:55:27.087Z,99.90
2023-03-16T20:58:24.457Z,99.90
2023-03-16T21:01:17.435Z,99.90
2023-03-16T21:04:03.539Z,99.90
2023-03-16T21:06:50.808Z,99.90
2023-03-16T21:09:36.219Z,99.90
2023-03-16T21:12:27.129Z,99.90
2023-03-16T21:15:17.762Z,99.90
2023-03-16T21:18:04.743Z,99.90
2023-03-16T21:20:51.713Z,99.90
2023-03-16T21:23:37.314Z,99.90
2023-03-16T21:26:24.185Z,99.90
2023-03-16T21:29:15.764Z,99.90
2023-03-16T21:32:01.146Z,99.90
2023-03-16T21:34:47.429Z,99.90
2023-03-16T21:37:33.046Z,99.90
2023-03-16T21:40:19.419Z,99.90
2023-03-16T21:43:04.801Z,99.90
2023-03-16T21:45:54.033Z,99.90
2023-03-16T21:48:40.251Z,99.90
2023-03-16T21:51:29.004Z,99.90
2023-03-16T21:54:15.463Z,99.90
2023-03-16T21:57:00.798Z,99.90
2023-03-16T21:59:47.111Z,97.50
2023-03-16T22:02:32.692Z,98.90
2023-03-16T22:05:27.587Z,99.40
2023-03-16T22:08:16.046Z,98.30
2023-03-16T22:11:02.027Z,98.40
2023-03-16T22:13:47.863Z,99.10
2023-03-16T22:16:36.076Z,98.50
2023-03-16T22:19:22.275Z,98.30
2023-03-16T22:22:12.069Z,95.10
2023-03-16T22:24:57.430Z,98.50
2023-03-16T22:27:43.187Z,97.20
2023-03-16T22:30:28.776Z,97.10
2023-03-16T22:33:17.486Z,97.10
2023-03-16T22:36:11.747Z,97.30
2023-03-16T22:38:59.691Z,96.40
2023-03-16T22:41:45.414Z,95.10
2023-03-16T22:44:30.824Z,96.80
2023-03-16T22:47:26.649Z,95.00
2023-03-16T22:50:16.629Z,95.80
2023-03-16T22:53:04.282Z,95.40
2023-03-16T22:55:50.682Z,95.00
2023-03-16T22:58:39.176Z,94.10
2023-03-16T23:01:30.745Z,96.10
2023-03-16T23:04:20.958Z,94.60
2023-03-16T23:07:11.337Z,95.00
2023-03-16T23:09:56.872Z,92.70
2023-03-16T23:12:42.791Z,95.30
2023-03-16T23:15:29.948Z,94.50
2023-03-16T23:18:26.036Z,93.80
2023-03-16T23:21:13.733Z,93.30
2023-03-16T23:24:04.070Z,95.20
2023-03-16T23:26:51.070Z,94.20
2023-03-16T23:29:36.605Z,93.20
2023-03-16T23:32:22.233Z,93.70
2023-03-16T23:35:19.997Z,93.40
2023-03-16T23:38:05.816Z,93.70
2023-03-16T23:40:51.073Z,91.90
2023-03-16T23:43:37.503Z,91.50
2023-03-16T23:46:23.736Z,91.80
2023-03-16T23:49:13.782Z,91.70
2023-03-16T23:52:00.707Z,92.10
2023-03-16T23:54:46.143Z,93.00
2023-03-16T23:57:31.755Z,92.30
